Track Рязанова Олеся

Time Latitude Longitude Accuracy (66% radius in meters) Altitude (meters) Speed (km/hour) Bearing (degrees) Battery (%) GPS flag
09:34:32 60.370984 29.556325 6 76 0.12358598411083 346.65811157227 73 1 delete
09:34:20 60.370966 29.556359 6 83 0 235.40016174316 73 1 delete
09:34:07 60.370955 29.556322 8 90 0 187.38423156738 73 1 delete
09:33:54 60.370933 29.556333 8 75 0 187.38423156738 73 1 delete
09:33:43 60.370959 29.556349 16 65 0 117.48085784912 73 1 delete
09:33:41 60.370970 29.556342 6 67 0 117.48085784912 73 1 delete
09:33:29 60.371007 29.556266 6 77 0 117.48085784912 73 1 delete
09:33:18 60.370989 29.556277 6 88 0 26.520864486694 73 1 delete
09:33:17 60.370986 29.556286 6 89 0 26.520864486694 73 1 delete
09:33:04 60.370968 29.556293 8 75 0 200.70227050781 73 1 delete
09:32:51 60.370938 29.556265 12 87 0 160.32206726074 73 1 delete
09:32:39 60.370937 29.556280 8 80 0 160.32206726074 73 1 delete
09:32:35 60.370942 29.556289 8 77 0 160.32206726074 73 1 delete
09:32:27 60.370959 29.556309 6 80 0 221.90054321289 73 1 delete
09:32:14 60.370970 29.556378 8 78 0 221.90054321289 73 1 delete
09:32:02 60.370970 29.556378 16 57 0 221.90054321289 73 1 delete
09:31:49 60.370970 29.556369 6 56 0 221.90054321289 73 1 delete
09:31:48 60.370970 29.556361 16 57 0 221.90054321289 73 1 delete
09:31:37 60.370986 29.556253 12 71 0 212.25868225098 73 1 delete
09:31:29 60.370998 29.556288 8 82 0 51.263916015625 73 1 delete
09:31:25 60.370995 29.556299 6 84 0 183.44201660156 73 1 delete
09:31:16 60.370975 29.556370 12 76 0 183.44201660156 73 1 delete
09:31:12 60.370964 29.556401 6 77 0 183.44201660156 73 1 delete
09:30:59 60.370963 29.556409 6 56 0 183.44201660156 73 1 delete
09:30:45 60.370970 29.556430 6 53 0 324.92587280273 73 1 delete
09:30:32 60.370965 29.556416 8 50 0 198.82995605469 73 1 delete
09:30:20 60.370960 29.556468 8 40 0 198.82995605469 73 1 delete
09:30:07 60.370956 29.556487 8 34 0 198.82995605469 73 1 delete
09:30:02 60.370957 29.556457 12 35 0 198.82995605469 73 1 delete
09:29:54 60.370959 29.556401 8 46 0 198.82995605469 73 1 delete
09:29:41 60.370973 29.556334 4 70 0 198.82995605469 73 1 delete
09:29:26 60.370962 29.556348 8 65 0 198.82995605469 73 1 delete
09:29:24 60.370955 29.556363 8 62 0 198.82995605469 73 1 delete
09:29:13 60.370926 29.556405 6 64 0 198.82995605469 73 1 delete
09:29:07 60.370917 29.556417 12 63 0 220.02784729004 73 1 delete
09:29:00 60.370923 29.556400 12 64 0 220.02784729004 73 1 delete
09:28:47 60.370907 29.556377 4 70 0 240.41682434082 73 1 delete
09:28:35 60.370936 29.556341 12 66 0 232.12251281738 73 1 delete
09:28:26 60.370940 29.556339 6 66 0 269.74822998047 73 1 delete
09:28:23 60.370942 29.556368 6 67 0 269.74822998047 73 1 delete
09:28:10 60.370953 29.556476 12 72 0 269.74822998047 73 1 delete
09:27:56 60.370953 29.556476 12 67 0 269.74822998047 73 1 delete
09:27:44 60.370953 29.556476 12 82 0 269.74822998047 73 1 delete
09:27:31 60.370953 29.556476 8 90 0 269.74822998047 73 1 delete
09:27:19 60.370953 29.556476 16 72 0 269.74822998047 73 1 delete
09:27:06 60.370950 29.556486 8 61 0 269.74822998047 73 1 delete
09:26:53 60.370950 29.556486 8 55 0 269.74822998047 73 1 delete
09:26:39 60.370955 29.556487 8 57 0 256.92886352539 73 1 delete
09:26:27 60.370952 29.556479 8 55 0 69.739822387695 73 1 delete
09:26:15 60.370955 29.556458 12 61 0 252.28015136719 73 1 delete